sensor_id;sensor_type;location;lat;lon;timestamp;temperature;humidity
63051;SHT30;49136;47.416;19.402;2022-08-03T00:02:11;19.38;82.15
63051;SHT30;49136;47.416;19.402;2022-08-03T00:04:37;19.28;82.99
63051;SHT30;49136;47.416;19.402;2022-08-03T00:07:02;19.26;83.29
63051;SHT30;49136;47.416;19.402;2022-08-03T00:09:27;19.16;82.96
63051;SHT30;49136;47.416;19.402;2022-08-03T00:11:55;19.20;83.32
63051;SHT30;49136;47.416;19.402;2022-08-03T00:14:20;19.16;83.37
63051;SHT30;49136;47.416;19.402;2022-08-03T00:16:45;19.09;83.58
63051;SHT30;49136;47.416;19.402;2022-08-03T00:19:11;19.03;83.87
63051;SHT30;49136;47.416;19.402;2022-08-03T00:21:36;18.98;83.84
63051;SHT30;49136;47.416;19.402;2022-08-03T00:24:02;18.92;84.24
63051;SHT30;49136;47.416;19.402;2022-08-03T00:26:27;18.89;83.76
63051;SHT30;49136;47.416;19.402;2022-08-03T00:28:52;18.85;84.00
63051;SHT30;49136;47.416;19.402;2022-08-03T00:31:18;18.79;84.46
63051;SHT30;49136;47.416;19.402;2022-08-03T00:33:43;18.79;84.56
63051;SHT30;49136;47.416;19.402;2022-08-03T00:36:09;18.84;84.58
63051;SHT30;49136;47.416;19.402;2022-08-03T00:38:34;18.85;84.60
63051;SHT30;49136;47.416;19.402;2022-08-03T00:40:59;18.96;84.36
63051;SHT30;49136;47.416;19.402;2022-08-03T00:43:25;19.05;84.21
63051;SHT30;49136;47.416;19.402;2022-08-03T00:45:52;18.96;84.35
63051;SHT30;49136;47.416;19.402;2022-08-03T00:48:19;18.94;84.40
63051;SHT30;49136;47.416;19.402;2022-08-03T00:50:44;18.94;84.20
63051;SHT30;49136;47.416;19.402;2022-08-03T00:53:10;18.95;84.17
63051;SHT30;49136;47.416;19.402;2022-08-03T00:55:37;19.19;84.35
63051;SHT30;49136;47.416;19.402;2022-08-03T00:58:04;19.16;84.66
63051;SHT30;49136;47.416;19.402;2022-08-03T01:00:35;19.17;84.48
63051;SHT30;49136;47.416;19.402;2022-08-03T01:03:04;19.12;84.57
63051;SHT30;49136;47.416;19.402;2022-08-03T01:05:35;19.31;84.53
63051;SHT30;49136;47.416;19.402;2022-08-03T01:08:18;19.30;84.60
63051;SHT30;49136;47.416;19.402;2022-08-03T01:11:05;19.33;84.70
63051;SHT30;49136;47.416;19.402;2022-08-03T01:16:27;19.13;85.09
63051;SHT30;49136;47.416;19.402;2022-08-03T01:19:00;19.22;84.56
63051;SHT30;49136;47.416;19.402;2022-08-03T01:21:42;19.15;85.06
63051;SHT30;49136;47.416;19.402;2022-08-03T01:24:29;19.15;85.24
63051;SHT30;49136;47.416;19.402;2022-08-03T01:27:32;19.19;85.16
63051;SHT30;49136;47.416;19.402;2022-08-03T01:30:10;19.17;85.48
63051;SHT30;49136;47.416;19.402;2022-08-03T01:32:53;19.16;85.33
63051;SHT30;49136;47.416;19.402;2022-08-03T01:35:46;19.20;85.18
63051;SHT30;49136;47.416;19.402;2022-08-03T01:38:25;19.28;85.26
63051;SHT30;49136;47.416;19.402;2022-08-03T01:40:52;19.19;85.52
63051;SHT30;49136;47.416;19.402;2022-08-03T01:43:22;19.34;85.10
63051;SHT30;49136;47.416;19.402;2022-08-03T01:45:48;19.55;84.73
63051;SHT30;49136;47.416;19.402;2022-08-03T01:48:16;19.54;84.69
63051;SHT30;49136;47.416;19.402;2022-08-03T01:50:45;19.59;84.58
63051;SHT30;49136;47.416;19.402;2022-08-03T01:53:15;19.72;84.32
63051;SHT30;49136;47.416;19.402;2022-08-03T01:55:46;19.69;84.11
63051;SHT30;49136;47.416;19.402;2022-08-03T01:58:15;19.65;83.93
63051;SHT30;49136;47.416;19.402;2022-08-03T02:00:42;19.72;84.40
63051;SHT30;49136;47.416;19.402;2022-08-03T02:03:11;19.51;84.70
63051;SHT30;49136;47.416;19.402;2022-08-03T02:05:39;19.43;84.59
63051;SHT30;49136;47.416;19.402;2022-08-03T02:08:07;19.40;84.71
63051;SHT30;49136;47.416;19.402;2022-08-03T02:10:36;19.38;84.74
63051;SHT30;49136;47.416;19.402;2022-08-03T02:13:05;19.17;85.14
63051;SHT30;49136;47.416;19.402;2022-08-03T02:15:33;19.03;85.07
63051;SHT30;49136;47.416;19.402;2022-08-03T02:18:01;18.96;85.69
63051;SHT30;49136;47.416;19.402;2022-08-03T02:20:29;18.84;85.73
63051;SHT30;49136;47.416;19.402;2022-08-03T02:22:57;18.74;86.03
63051;SHT30;49136;47.416;19.402;2022-08-03T02:25:23;18.68;86.17
63051;SHT30;49136;47.416;19.402;2022-08-03T02:27:58;18.57;86.38
63051;SHT30;49136;47.416;19.402;2022-08-03T02:30:37;18.48;86.64
63051;SHT30;49136;47.416;19.402;2022-08-03T02:33:06;18.40;86.68
63051;SHT30;49136;47.416;19.402;2022-08-03T02:35:34;18.36;87.51
63051;SHT30;49136;47.416;19.402;2022-08-03T02:38:03;18.19;87.37
63051;SHT30;49136;47.416;19.402;2022-08-03T02:40:31;18.06;87.55
63051;SHT30;49136;47.416;19.402;2022-08-03T02:43:09;17.99;87.71
63051;SHT30;49136;47.416;19.402;2022-08-03T02:45:42;17.94;87.52
63051;SHT30;49136;47.416;19.402;2022-08-03T02:48:09;17.87;87.90
63051;SHT30;49136;47.416;19.402;2022-08-03T02:50:36;17.81;88.19
63051;SHT30;49136;47.416;19.402;2022-08-03T02:53:03;17.74;88.04
63051;SHT30;49136;47.416;19.402;2022-08-03T02:55:33;17.66;88.11
63051;SHT30;49136;47.416;19.402;2022-08-03T02:57:59;17.64;88.36
63051;SHT30;49136;47.416;19.402;2022-08-03T03:00:31;17.55;88.67
63051;SHT30;49136;47.416;19.402;2022-08-03T03:02:59;17.55;88.60
63051;SHT30;49136;47.416;19.402;2022-08-03T03:05:26;17.57;88.64
63051;SHT30;49136;47.416;19.402;2022-08-03T03:07:53;17.51;88.97
63051;SHT30;49136;47.416;19.402;2022-08-03T03:10:21;17.50;88.59
63051;SHT30;49136;47.416;19.402;2022-08-03T03:12:49;17.42;89.10
63051;SHT30;49136;47.416;19.402;2022-08-03T03:15:15;17.37;89.20
63051;SHT30;49136;47.416;19.402;2022-08-03T03:17:42;17.30;89.21
63051;SHT30;49136;47.416;19.402;2022-08-03T03:20:08;17.20;89.01
63051;SHT30;49136;47.416;19.402;2022-08-03T03:22:34;17.26;89.40
63051;SHT30;49136;47.416;19.402;2022-08-03T03:25:00;17.20;89.45
63051;SHT30;49136;47.416;19.402;2022-08-03T03:27:26;17.15;89.20
63051;SHT30;49136;47.416;19.402;2022-08-03T03:29:52;17.18;89.32
63051;SHT30;49136;47.416;19.402;2022-08-03T03:32:17;17.18;89.31
63051;SHT30;49136;47.416;19.402;2022-08-03T03:34:43;17.19;89.36
63051;SHT30;49136;47.416;19.402;2022-08-03T03:37:09;17.19;89.23
63051;SHT30;49136;47.416;19.402;2022-08-03T03:39:35;17.23;89.17
63051;SHT30;49136;47.416;19.402;2022-08-03T03:42:01;17.32;89.12
63051;SHT30;49136;47.416;19.402;2022-08-03T03:44:28;17.45;88.95
63051;SHT30;49136;47.416;19.402;2022-08-03T03:46:55;17.63;88.74
63051;SHT30;49136;47.416;19.402;2022-08-03T03:49:21;17.63;88.48
63051;SHT30;49136;47.416;19.402;2022-08-03T03:51:47;17.79;88.13
63051;SHT30;49136;47.416;19.402;2022-08-03T03:54:12;17.87;88.49
63051;SHT30;49136;47.416;19.402;2022-08-03T03:56:37;17.89;87.92
63051;SHT30;49136;47.416;19.402;2022-08-03T03:59:04;17.89;87.99
63051;SHT30;49136;47.416;19.402;2022-08-03T04:01:30;17.91;88.05
63051;SHT30;49136;47.416;19.402;2022-08-03T04:03:55;18.05;87.80
63051;SHT30;49136;47.416;19.402;2022-08-03T04:06:20;18.06;87.52
63051;SHT30;49136;47.416;19.402;2022-08-03T04:09:06;18.05;87.47
63051;SHT30;49136;47.416;19.402;2022-08-03T04:11:52;18.12;87.11
63051;SHT30;49136;47.416;19.402;2022-08-03T04:14:34;18.12;87.63
63051;SHT30;49136;47.416;19.402;2022-08-03T04:17:04;18.06;87.66
63051;SHT30;49136;47.416;19.402;2022-08-03T04:19:34;18.25;87.13
63051;SHT30;49136;47.416;19.402;2022-08-03T04:22:04;18.32;87.12
63051;SHT30;49136;47.416;19.402;2022-08-03T04:24:42;18.39;87.19
63051;SHT30;49136;47.416;19.402;2022-08-03T04:27:10;18.39;87.07
63051;SHT30;49136;47.416;19.402;2022-08-03T04:29:38;18.39;87.25
63051;SHT30;49136;47.416;19.402;2022-08-03T04:32:06;18.43;86.93
63051;SHT30;49136;47.416;19.402;2022-08-03T04:34:33;18.43;87.22
63051;SHT30;49136;47.416;19.402;2022-08-03T04:37:00;18.41;87.57
63051;SHT30;49136;47.416;19.402;2022-08-03T04:39:30;18.40;87.81
63051;SHT30;49136;47.416;19.402;2022-08-03T04:42:03;18.41;88.12
63051;SHT30;49136;47.416;19.402;2022-08-03T04:44:30;18.50;87.51
63051;SHT30;49136;47.416;19.402;2022-08-03T04:46:59;18.63;87.53
63051;SHT30;49136;47.416;19.402;2022-08-03T04:49:25;18.87;86.90
63051;SHT30;49136;47.416;19.402;2022-08-03T04:51:51;19.09;86.48
63051;SHT30;49136;47.416;19.402;2022-08-03T04:54:17;19.23;86.18
63051;SHT30;49136;47.416;19.402;2022-08-03T04:56:42;19.40;85.82
63051;SHT30;49136;47.416;19.402;2022-08-03T04:59:09;19.58;86.13
63051;SHT30;49136;47.416;19.402;2022-08-03T05:01:34;19.75;85.98
63051;SHT30;49136;47.416;19.402;2022-08-03T05:04:00;19.89;85.80
63051;SHT30;49136;47.416;19.402;2022-08-03T05:06:25;20.14;85.30
63051;SHT30;49136;47.416;19.402;2022-08-03T05:08:51;20.52;84.01
63051;SHT30;49136;47.416;19.402;2022-08-03T05:11:16;20.90;81.93
63051;SHT30;49136;47.416;19.402;2022-08-03T05:13:43;21.30;81.29
63051;SHT30;49136;47.416;19.402;2022-08-03T05:16:09;21.62;81.31
63051;SHT30;49136;47.416;19.402;2022-08-03T05:18:34;21.98;81.30
63051;SHT30;49136;47.416;19.402;2022-08-03T05:21:00;22.29;79.81
63051;SHT30;49136;47.416;19.402;2022-08-03T05:23:26;22.46;78.14
63051;SHT30;49136;47.416;19.402;2022-08-03T05:25:51;22.64;77.11
63051;SHT30;49136;47.416;19.402;2022-08-03T05:28:16;22.91;77.28
63051;SHT30;49136;47.416;19.402;2022-08-03T05:30:42;22.79;76.73
63051;SHT30;49136;47.416;19.402;2022-08-03T05:33:07;22.90;75.70
63051;SHT30;49136;47.416;19.402;2022-08-03T05:35:33;23.29;75.52
63051;SHT30;49136;47.416;19.402;2022-08-03T05:38:01;23.28;73.79
63051;SHT30;49136;47.416;19.402;2022-08-03T05:40:26;23.43;73.67
63051;SHT30;49136;47.416;19.402;2022-08-03T05:42:52;23.81;73.04
63051;SHT30;49136;47.416;19.402;2022-08-03T05:45:17;24.35;71.45
63051;SHT30;49136;47.416;19.402;2022-08-03T05:47:43;24.37;71.23
63051;SHT30;49136;47.416;19.402;2022-08-03T05:50:12;24.23;72.01
63051;SHT30;49136;47.416;19.402;2022-08-03T05:52:39;24.35;70.67
63051;SHT30;49136;47.416;19.402;2022-08-03T05:55:08;24.84;71.57
63051;SHT30;49136;47.416;19.402;2022-08-03T05:57:34;25.11;69.70
63051;SHT30;49136;47.416;19.402;2022-08-03T06:00:02;25.30;68.77
63051;SHT30;49136;47.416;19.402;2022-08-03T06:02:27;24.92;69.26
63051;SHT30;49136;47.416;19.402;2022-08-03T06:04:53;24.19;70.36
63051;SHT30;49136;47.416;19.402;2022-08-03T06:07:18;24.21;70.10
63051;SHT30;49136;47.416;19.402;2022-08-03T06:09:44;24.14;70.74
63051;SHT30;49136;47.416;19.402;2022-08-03T06:12:09;24.64;69.84
63051;SHT30;49136;47.416;19.402;2022-08-03T06:14:35;24.73;69.56
63051;SHT30;49136;47.416;19.402;2022-08-03T06:17:00;25.04;69.44
63051;SHT30;49136;47.416;19.402;2022-08-03T06:19:25;25.89;66.60
63051;SHT30;49136;47.416;19.402;2022-08-03T06:21:51;25.57;66.61
63051;SHT30;49136;47.416;19.402;2022-08-03T06:24:17;26.37;66.20
63051;SHT30;49136;47.416;19.402;2022-08-03T06:26:42;26.29;65.21
63051;SHT30;49136;47.416;19.402;2022-08-03T06:29:07;25.68;65.61
63051;SHT30;49136;47.416;19.402;2022-08-03T06:31:33;26.23;64.58
63051;SHT30;49136;47.416;19.402;2022-08-03T06:33:58;26.19;65.51
63051;SHT30;49136;47.416;19.402;2022-08-03T06:36:24;26.32;65.26
63051;SHT30;49136;47.416;19.402;2022-08-03T06:38:55;26.17;64.95
63051;SHT30;49136;47.416;19.402;2022-08-03T06:41:20;26.71;64.76
63051;SHT30;49136;47.416;19.402;2022-08-03T06:43:46;27.40;62.62
63051;SHT30;49136;47.416;19.402;2022-08-03T06:46:11;27.11;65.49
63051;SHT30;49136;47.416;19.402;2022-08-03T06:48:37;27.11;62.19
63051;SHT30;49136;47.416;19.402;2022-08-03T06:51:02;27.06;61.79
63051;SHT30;49136;47.416;19.402;2022-08-03T06:53:27;27.06;63.02
63051;SHT30;49136;47.416;19.402;2022-08-03T06:55:53;27.44;63.22
63051;SHT30;49136;47.416;19.402;2022-08-03T06:58:18;27.36;60.36
63051;SHT30;49136;47.416;19.402;2022-08-03T07:00:43;27.51;59.15
63051;SHT30;49136;47.416;19.402;2022-08-03T07:03:09;27.55;60.54
63051;SHT30;49136;47.416;19.402;2022-08-03T07:05:34;27.85;61.71
63051;SHT30;49136;47.416;19.402;2022-08-03T07:08:00;27.45;60.70
63051;SHT30;49136;47.416;19.402;2022-08-03T07:10:27;27.84;60.57
63051;SHT30;49136;47.416;19.402;2022-08-03T07:12:53;27.29;61.61
63051;SHT30;49136;47.416;19.402;2022-08-03T07:15:18;28.00;60.47
63051;SHT30;49136;47.416;19.402;2022-08-03T07:17:44;28.09;60.24
63051;SHT30;49136;47.416;19.402;2022-08-03T07:20:10;27.89;60.39
63051;SHT30;49136;47.416;19.402;2022-08-03T07:22:35;28.47;58.60
63051;SHT30;49136;47.416;19.402;2022-08-03T07:25:01;28.49;58.16
63051;SHT30;49136;47.416;19.402;2022-08-03T07:27:26;27.54;58.94
63051;SHT30;49136;47.416;19.402;2022-08-03T07:29:53;28.36;60.57
63051;SHT30;49136;47.416;19.402;2022-08-03T07:32:19;27.99;59.49
63051;SHT30;49136;47.416;19.402;2022-08-03T07:34:44;27.79;60.14
63051;SHT30;49136;47.416;19.402;2022-08-03T07:37:10;28.36;59.06
63051;SHT30;49136;47.416;19.402;2022-08-03T07:39:35;27.90;59.00
63051;SHT30;49136;47.416;19.402;2022-08-03T07:42:01;27.90;61.61
63051;SHT30;49136;47.416;19.402;2022-08-03T07:44:26;28.56;57.96
63051;SHT30;49136;47.416;19.402;2022-08-03T07:46:51;28.10;58.19
63051;SHT30;49136;47.416;19.402;2022-08-03T07:49:17;28.28;57.86
63051;SHT30;49136;47.416;19.402;2022-08-03T07:51:42;28.45;57.60
63051;SHT30;49136;47.416;19.402;2022-08-03T07:54:08;28.09;58.38
63051;SHT30;49136;47.416;19.402;2022-08-03T07:56:35;28.21;58.76
63051;SHT30;49136;47.416;19.402;2022-08-03T07:59:00;28.45;56.96
63051;SHT30;49136;47.416;19.402;2022-08-03T08:01:27;28.40;57.17
63051;SHT30;49136;47.416;19.402;2022-08-03T08:03:53;28.45;57.33
63051;SHT30;49136;47.416;19.402;2022-08-03T08:06:19;28.58;56.55
63051;SHT30;49136;47.416;19.402;2022-08-03T08:08:44;28.71;56.92
63051;SHT30;49136;47.416;19.402;2022-08-03T08:11:10;28.63;57.46
63051;SHT30;49136;47.416;19.402;2022-08-03T08:13:35;28.51;56.64
63051;SHT30;49136;47.416;19.402;2022-08-03T08:16:03;27.73;57.10
63051;SHT30;49136;47.416;19.402;2022-08-03T08:18:28;28.69;56.63
63051;SHT30;49136;47.416;19.402;2022-08-03T08:20:54;28.66;56.71
63051;SHT30;49136;47.416;19.402;2022-08-03T08:23:20;29.11;57.24
63051;SHT30;49136;47.416;19.402;2022-08-03T08:25:52;28.68;55.61
63051;SHT30;49136;47.416;19.402;2022-08-03T08:28:19;28.86;55.81
63051;SHT30;49136;47.416;19.402;2022-08-03T08:30:44;29.15;55.13
63051;SHT30;49136;47.416;19.402;2022-08-03T08:33:12;28.97;55.45
63051;SHT30;49136;47.416;19.402;2022-08-03T08:35:37;28.96;55.00
63051;SHT30;49136;47.416;19.402;2022-08-03T08:38:03;29.59;56.35
63051;SHT30;49136;47.416;19.402;2022-08-03T08:40:28;29.84;56.43
63051;SHT30;49136;47.416;19.402;2022-08-03T08:42:54;29.83;54.69
63051;SHT30;49136;47.416;19.402;2022-08-03T08:45:19;29.67;54.80
63051;SHT30;49136;47.416;19.402;2022-08-03T08:47:46;29.39;53.82
63051;SHT30;49136;47.416;19.402;2022-08-03T08:50:13;29.55;55.52
63051;SHT30;49136;47.416;19.402;2022-08-03T08:52:42;29.73;53.38
63051;SHT30;49136;47.416;19.402;2022-08-03T08:55:09;29.70;52.45
63051;SHT30;49136;47.416;19.402;2022-08-03T08:57:37;29.93;52.01
63051;SHT30;49136;47.416;19.402;2022-08-03T09:00:07;29.46;52.38
63051;SHT30;49136;47.416;19.402;2022-08-03T09:02:34;29.59;53.28
63051;SHT30;49136;47.416;19.402;2022-08-03T09:05:00;29.84;52.78
63051;SHT30;49136;47.416;19.402;2022-08-03T09:07:26;29.80;52.10
63051;SHT30;49136;47.416;19.402;2022-08-03T09:09:52;30.08;51.57
63051;SHT30;49136;47.416;19.402;2022-08-03T09:12:17;30.07;50.90
63051;SHT30;49136;47.416;19.402;2022-08-03T09:14:43;29.20;52.60
63051;SHT30;49136;47.416;19.402;2022-08-03T09:17:08;29.13;51.33
63051;SHT30;49136;47.416;19.402;2022-08-03T09:19:34;28.65;52.18
63051;SHT30;49136;47.416;19.402;2022-08-03T09:22:11;28.38;54.91
63051;SHT30;49136;47.416;19.402;2022-08-03T09:24:37;28.63;52.60
63051;SHT30;49136;47.416;19.402;2022-08-03T09:27:10;29.15;52.69
63051;SHT30;49136;47.416;19.402;2022-08-03T09:29:37;29.73;52.00
63051;SHT30;49136;47.416;19.402;2022-08-03T09:32:03;29.80;52.56
63051;SHT30;49136;47.416;19.402;2022-08-03T09:34:29;30.29;51.13
63051;SHT30;49136;47.416;19.402;2022-08-03T09:36:55;29.67;51.83
63051;SHT30;49136;47.416;19.402;2022-08-03T09:39:25;29.39;53.27
63051;SHT30;49136;47.416;19.402;2022-08-03T09:44:44;28.96;53.55
63051;SHT30;49136;47.416;19.402;2022-08-03T09:47:27;28.76;52.83
63051;SHT30;49136;47.416;19.402;2022-08-03T09:52:38;28.82;53.64
63051;SHT30;49136;47.416;19.402;2022-08-03T09:55:12;28.87;54.09
63051;SHT30;49136;47.416;19.402;2022-08-03T09:57:38;28.97;53.01
63051;SHT30;49136;47.416;19.402;2022-08-03T10:00:12;28.99;55.04
63051;SHT30;49136;47.416;19.402;2022-08-03T10:02:42;28.76;52.59
63051;SHT30;49136;47.416;19.402;2022-08-03T10:05:10;28.69;54.27
63051;SHT30;49136;47.416;19.402;2022-08-03T10:07:47;28.68;53.19
63051;SHT30;49136;47.416;19.402;2022-08-03T10:10:13;28.84;53.56
63051;SHT30;49136;47.416;19.402;2022-08-03T10:12:40;28.93;52.35
63051;SHT30;49136;47.416;19.402;2022-08-03T10:15:07;28.99;51.39
63051;SHT30;49136;47.416;19.402;2022-08-03T10:17:32;29.15;53.26
63051;SHT30;49136;47.416;19.402;2022-08-03T10:19:58;28.93;51.82
63051;SHT30;49136;47.416;19.402;2022-08-03T10:22:31;29.39;52.81
63051;SHT30;49136;47.416;19.402;2022-08-03T10:25:16;30.01;53.42
63051;SHT30;49136;47.416;19.402;2022-08-03T10:27:46;29.72;53.50
63051;SHT30;49136;47.416;19.402;2022-08-03T10:30:12;29.58;51.83
63051;SHT30;49136;47.416;19.402;2022-08-03T10:35:18;29.42;51.34
63051;SHT30;49136;47.416;19.402;2022-08-03T10:37:50;29.48;51.08
63051;SHT30;49136;47.416;19.402;2022-08-03T10:40:19;29.46;50.60
63051;SHT30;49136;47.416;19.402;2022-08-03T10:42:46;29.45;51.88
63051;SHT30;49136;47.416;19.402;2022-08-03T10:45:24;29.73;50.99
63051;SHT30;49136;47.416;19.402;2022-08-03T10:47:51;29.24;50.80
63051;SHT30;49136;47.416;19.402;2022-08-03T10:50:18;29.31;51.20
63051;SHT30;49136;47.416;19.402;2022-08-03T10:53:00;29.31;50.77
63051;SHT30;49136;47.416;19.402;2022-08-03T10:55:37;29.51;50.30
63051;SHT30;49136;47.416;19.402;2022-08-03T11:01:07;29.84;52.09
63051;SHT30;49136;47.416;19.402;2022-08-03T11:03:33;29.76;50.14
63051;SHT30;49136;47.416;19.402;2022-08-03T11:06:16;29.61;50.28
63051;SHT30;49136;47.416;19.402;2022-08-03T11:08:48;29.61;51.07
63051;SHT30;49136;47.416;19.402;2022-08-03T11:13:57;29.46;50.52
63051;SHT30;49136;47.416;19.402;2022-08-03T11:16:25;29.66;50.28
63051;SHT30;49136;47.416;19.402;2022-08-03T11:19:05;29.69;50.11
63051;SHT30;49136;47.416;19.402;2022-08-03T11:27:16;29.86;49.00
63051;SHT30;49136;47.416;19.402;2022-08-03T11:38:03;29.65;50.52
63051;SHT30;49136;47.416;19.402;2022-08-03T11:43:02;29.62;49.94
63051;SHT30;49136;47.416;19.402;2022-08-03T11:45:28;29.69;52.84
63051;SHT30;49136;47.416;19.402;2022-08-03T11:47:55;29.98;50.63
63051;SHT30;49136;47.416;19.402;2022-08-03T11:50:23;29.65;49.54
63051;SHT30;49136;47.416;19.402;2022-08-03T11:52:49;29.67;51.25
63051;SHT30;49136;47.416;19.402;2022-08-03T11:55:17;30.11;51.63
63051;SHT30;49136;47.416;19.402;2022-08-03T11:57:45;30.27;50.30
63051;SHT30;49136;47.416;19.402;2022-08-03T12:03:05;30.14;50.49
63051;SHT30;49136;47.416;19.402;2022-08-03T12:05:49;30.60;49.54
63051;SHT30;49136;47.416;19.402;2022-08-03T12:08:17;30.15;47.79
63051;SHT30;49136;47.416;19.402;2022-08-03T12:10:47;29.69;47.95
63051;SHT30;49136;47.416;19.402;2022-08-03T12:13:13;29.89;50.75
63051;SHT30;49136;47.416;19.402;2022-08-03T12:15:40;29.73;51.08
63051;SHT30;49136;47.416;19.402;2022-08-03T12:18:15;30.00;52.60
63051;SHT30;49136;47.416;19.402;2022-08-03T12:20:41;30.39;52.08
63051;SHT30;49136;47.416;19.402;2022-08-03T12:23:07;30.73;50.44
63051;SHT30;49136;47.416;19.402;2022-08-03T12:25:34;31.18;47.25
63051;SHT30;49136;47.416;19.402;2022-08-03T12:28:18;30.72;46.80
63051;SHT30;49136;47.416;19.402;2022-08-03T12:30:50;31.08;47.22
63051;SHT30;49136;47.416;19.402;2022-08-03T12:33:16;31.65;43.72
63051;SHT30;49136;47.416;19.402;2022-08-03T12:35:48;32.22;43.04
63051;SHT30;49136;47.416;19.402;2022-08-03T12:38:19;32.11;42.76
63051;SHT30;49136;47.416;19.402;2022-08-03T12:40:45;32.61;44.48
63051;SHT30;49136;47.416;19.402;2022-08-03T12:43:13;33.33;44.78
63051;SHT30;49136;47.416;19.402;2022-08-03T12:45:39;33.80;43.96
63051;SHT30;49136;47.416;19.402;2022-08-03T12:48:08;33.77;42.21
63051;SHT30;49136;47.416;19.402;2022-08-03T12:50:35;34.09;42.30
63051;SHT30;49136;47.416;19.402;2022-08-03T12:53:03;33.41;44.23
63051;SHT30;49136;47.416;19.402;2022-08-03T12:55:30;33.02;45.09
63051;SHT30;49136;47.416;19.402;2022-08-03T12:58:03;33.01;43.52
63051;SHT30;49136;47.416;19.402;2022-08-03T13:00:30;33.37;45.37
63051;SHT30;49136;47.416;19.402;2022-08-03T13:05:27;31.69;44.58
63051;SHT30;49136;47.416;19.402;2022-08-03T13:07:52;32.25;45.98
63051;SHT30;49136;47.416;19.402;2022-08-03T13:10:32;32.08;46.50
63051;SHT30;49136;47.416;19.402;2022-08-03T13:12:58;31.80;44.17
63051;SHT30;49136;47.416;19.402;2022-08-03T13:15:29;31.42;43.39
63051;SHT30;49136;47.416;19.402;2022-08-03T13:17:55;31.57;43.38
63051;SHT30;49136;47.416;19.402;2022-08-03T13:20:21;31.51;43.36
63051;SHT30;49136;47.416;19.402;2022-08-03T13:22:47;32.32;44.06
63051;SHT30;49136;47.416;19.402;2022-08-03T13:25:13;32.00;42.94
63051;SHT30;49136;47.416;19.402;2022-08-03T13:27:39;31.83;44.60
63051;SHT30;49136;47.416;19.402;2022-08-03T13:30:05;31.54;46.14
63051;SHT30;49136;47.416;19.402;2022-08-03T13:32:32;31.53;47.22
63051;SHT30;49136;47.416;19.402;2022-08-03T13:34:57;31.87;42.40
63051;SHT30;49136;47.416;19.402;2022-08-03T13:37:23;32.53;43.79
63051;SHT30;49136;47.416;19.402;2022-08-03T13:39:49;32.39;43.44
63051;SHT30;49136;47.416;19.402;2022-08-03T13:42:14;32.76;44.86
63051;SHT30;49136;47.416;19.402;2022-08-03T13:44:40;32.78;42.14
63051;SHT30;49136;47.416;19.402;2022-08-03T13:47:05;32.36;41.89
63051;SHT30;49136;47.416;19.402;2022-08-03T13:49:31;33.14;42.27
63051;SHT30;49136;47.416;19.402;2022-08-03T13:51:56;33.68;40.18
63051;SHT30;49136;47.416;19.402;2022-08-03T13:54:22;33.95;41.20
63051;SHT30;49136;47.416;19.402;2022-08-03T13:56:49;34.13;42.69
63051;SHT30;49136;47.416;19.402;2022-08-03T13:59:25;34.49;40.89
63051;SHT30;49136;47.416;19.402;2022-08-03T14:01:51;34.78;39.28
63051;SHT30;49136;47.416;19.402;2022-08-03T14:04:18;34.83;38.28
63051;SHT30;49136;47.416;19.402;2022-08-03T14:06:44;35.08;39.61
63051;SHT30;49136;47.416;19.402;2022-08-03T14:09:13;35.01;39.19
63051;SHT30;49136;47.416;19.402;2022-08-03T14:11:39;35.16;38.14
63051;SHT30;49136;47.416;19.402;2022-08-03T14:14:05;34.40;41.14
63051;SHT30;49136;47.416;19.402;2022-08-03T14:16:30;34.50;40.39
63051;SHT30;49136;47.416;19.402;2022-08-03T14:18:56;34.53;39.68
63051;SHT30;49136;47.416;19.402;2022-08-03T14:21:21;34.00;37.69
63051;SHT30;49136;47.416;19.402;2022-08-03T14:23:46;33.93;39.16
63051;SHT30;49136;47.416;19.402;2022-08-03T14:26:12;33.12;39.31
63051;SHT30;49136;47.416;19.402;2022-08-03T14:28:39;33.22;39.65
63051;SHT30;49136;47.416;19.402;2022-08-03T14:31:04;33.61;42.22
63051;SHT30;49136;47.416;19.402;2022-08-03T14:33:30;33.84;43.77
63051;SHT30;49136;47.416;19.402;2022-08-03T14:35:56;33.76;38.80
63051;SHT30;49136;47.416;19.402;2022-08-03T14:38:21;33.37;38.32
63051;SHT30;49136;47.416;19.402;2022-08-03T14:40:47;33.77;41.96
63051;SHT30;49136;47.416;19.402;2022-08-03T14:43:13;33.60;39.05
63051;SHT30;49136;47.416;19.402;2022-08-03T14:45:39;33.94;39.90
63051;SHT30;49136;47.416;19.402;2022-08-03T14:48:04;33.36;38.40
63051;SHT30;49136;47.416;19.402;2022-08-03T14:50:30;33.57;38.70
63051;SHT30;49136;47.416;19.402;2022-08-03T14:52:55;33.61;37.96
63051;SHT30;49136;47.416;19.402;2022-08-03T14:55:21;33.43;38.49
63051;SHT30;49136;47.416;19.402;2022-08-03T14:57:46;33.53;39.14
63051;SHT30;49136;47.416;19.402;2022-08-03T15:00:12;33.76;39.22
63051;SHT30;49136;47.416;19.402;2022-08-03T15:02:38;33.56;38.42
63051;SHT30;49136;47.416;19.402;2022-08-03T15:05:03;33.63;38.49
63051;SHT30;49136;47.416;19.402;2022-08-03T15:07:29;33.35;38.88
63051;SHT30;49136;47.416;19.402;2022-08-03T15:09:54;33.18;38.63
63051;SHT30;49136;47.416;19.402;2022-08-03T15:12:20;33.53;38.86
63051;SHT30;49136;47.416;19.402;2022-08-03T15:14:45;33.94;39.98
63051;SHT30;49136;47.416;19.402;2022-08-03T15:17:11;33.49;40.59
63051;SHT30;49136;47.416;19.402;2022-08-03T15:19:36;33.49;40.48
63051;SHT30;49136;47.416;19.402;2022-08-03T15:22:02;33.32;40.71
63051;SHT30;49136;47.416;19.402;2022-08-03T15:24:28;33.39;43.52
63051;SHT30;49136;47.416;19.402;2022-08-03T15:26:53;33.23;42.05
63051;SHT30;49136;47.416;19.402;2022-08-03T15:29:18;33.05;44.19
63051;SHT30;49136;47.416;19.402;2022-08-03T15:31:44;32.83;41.93
63051;SHT30;49136;47.416;19.402;2022-08-03T15:34:09;32.70;44.39
63051;SHT30;49136;47.416;19.402;2022-08-03T15:36:36;32.74;44.76
63051;SHT30;49136;47.416;19.402;2022-08-03T15:39:03;32.22;42.73
63051;SHT30;49136;47.416;19.402;2022-08-03T15:41:29;32.05;42.74
63051;SHT30;49136;47.416;19.402;2022-08-03T15:43:54;32.63;43.44
63051;SHT30;49136;47.416;19.402;2022-08-03T15:46:19;32.52;44.31
63051;SHT30;49136;47.416;19.402;2022-08-03T15:48:45;32.26;42.96
63051;SHT30;49136;47.416;19.402;2022-08-03T15:51:11;32.14;43.53
63051;SHT30;49136;47.416;19.402;2022-08-03T15:53:36;32.17;44.74
63051;SHT30;49136;47.416;19.402;2022-08-03T15:56:02;32.25;45.34
63051;SHT30;49136;47.416;19.402;2022-08-03T15:58:28;32.18;44.08